createdAt,value
2022-09-28T00:01:39.267Z,17.65
2022-09-28T00:07:23.307Z,17.67
2022-09-28T00:13:06.751Z,17.63
2022-09-28T00:18:50.356Z,17.59
2022-09-28T00:24:34.003Z,17.55
2022-09-28T00:30:17.527Z,17.51
2022-09-28T00:36:01.315Z,17.48
2022-09-28T00:41:45.511Z,17.42
2022-09-28T00:47:40.295Z,17.37
2022-09-28T00:53:25.855Z,17.34
2022-09-28T00:59:09.594Z,17.28
2022-09-28T01:04:53.236Z,17.27
2022-09-28T01:10:36.711Z,17.28
2022-09-28T01:16:25.991Z,17.29
2022-09-28T01:22:16.862Z,17.29
2022-09-28T01:28:04.176Z,17.25
2022-09-28T01:33:50.075Z,17.27
2022-09-28T01:39:34.621Z,17.23
2022-09-28T01:45:21.658Z,17.2
2022-09-28T01:51:09.822Z,17.17
2022-09-28T01:56:55.231Z,17.16
2022-09-28T02:02:39.995Z,17.13
2022-09-28T02:08:26.607Z,17.12
2022-09-28T02:14:10.953Z,17.1
2022-09-28T02:19:55.223Z,17.09
2022-09-28T02:25:40.030Z,17.08
2022-09-28T02:31:23.329Z,17.07
2022-09-28T02:37:06.770Z,17.07
2022-09-28T02:42:52.417Z,17.07
2022-09-28T02:48:55.966Z,17.07
2022-09-28T02:55:02.085Z,17.11
2022-09-28T03:00:51.596Z,17.11
2022-09-28T03:06:39.717Z,17.1
2022-09-28T03:12:24.477Z,17.1
2022-09-28T03:18:07.866Z,17.05
2022-09-28T03:23:51.066Z,17.01
2022-09-28T03:29:34.211Z,16.98
2022-09-28T03:35:17.700Z,16.97
2022-09-28T03:41:01.017Z,16.93
2022-09-28T03:46:46.083Z,16.89
2022-09-28T03:52:29.243Z,16.86
2022-09-28T03:58:12.526Z,16.8
2022-09-28T04:03:56.703Z,16.76
2022-09-28T04:09:40.727Z,16.75
2022-09-28T04:15:25.087Z,16.71
2022-09-28T04:21:10.855Z,16.68
2022-09-28T04:26:54.166Z,16.65
2022-09-28T04:32:37.265Z,16.62
2022-09-28T04:38:30.789Z,16.57
2022-09-28T04:44:23.450Z,16.57
2022-09-28T04:50:08.282Z,16.49
2022-09-28T04:55:59.617Z,16.44
2022-09-28T05:01:42.903Z,16.44
2022-09-28T05:07:26.317Z,16.42
2022-09-28T05:13:10.123Z,16.41
2022-09-28T05:18:53.895Z,16.33
2022-09-28T05:24:38.040Z,16.29
2022-09-28T05:30:21.247Z,16.24
2022-09-28T05:36:04.775Z,16.23
2022-09-28T05:41:48.098Z,16.21
2022-09-28T05:47:31.253Z,16.18
2022-09-28T05:53:14.683Z,16.13
2022-09-28T05:58:58.120Z,16.13
2022-09-28T06:04:41.311Z,16.14
2022-09-28T06:10:24.642Z,16.13
2022-09-28T06:16:08.145Z,16.11
2022-09-28T06:21:51.532Z,16.15
2022-09-28T06:27:34.771Z,16.2
2022-09-28T06:33:18.119Z,16.27
2022-09-28T06:39:01.248Z,16.35
2022-09-28T06:44:44.682Z,16.39
2022-09-28T06:50:28.912Z,16.41
2022-09-28T06:56:12.231Z,16.49
2022-09-28T07:01:55.388Z,16.49
2022-09-28T07:07:39.680Z,16.54
2022-09-28T07:13:45.929Z,16.57
2022-09-28T07:19:27.115Z,16.65
2022-09-28T07:25:10.482Z,16.76
2022-09-28T07:30:56.067Z,16.86
2022-09-28T07:36:39.534Z,17
2022-09-28T07:42:22.806Z,17.07
2022-09-28T07:48:07.081Z,17.18
2022-09-28T07:53:50.309Z,17.32
2022-09-28T07:59:33.472Z,17.4
2022-09-28T08:05:16.815Z,17.58
2022-09-28T08:11:00.086Z,17.73
2022-09-28T08:16:43.347Z,17.95
2022-09-28T08:22:31.689Z,18.07
2022-09-28T08:28:15.062Z,18.34
2022-09-28T08:33:58.475Z,18.55
2022-09-28T08:39:42.774Z,18.66
2022-09-28T08:45:27.165Z,18.93
2022-09-28T08:51:12.595Z,18.98
2022-09-28T08:56:58.847Z,19.31
2022-09-28T09:02:42.349Z,19.54
2022-09-28T09:08:34.525Z,19.66
2022-09-28T09:14:24.789Z,19.87
2022-09-28T09:20:13.703Z,20.02
2022-09-28T09:26:00.215Z,20.12
2022-09-28T09:31:51.539Z,20.28
2022-09-28T09:37:44.036Z,20.43
2022-09-28T09:43:37.775Z,20.55
2022-09-28T09:49:23.840Z,20.72
2022-09-28T09:55:12.319Z,20.86
2022-09-28T10:00:58.026Z,21.01
2022-09-28T10:06:41.968Z,21.16
2022-09-28T10:12:25.306Z,21.14
2022-09-28T10:18:10.721Z,21.15
2022-09-28T10:23:55.273Z,21.51
2022-09-28T10:29:45.580Z,21.58
2022-09-28T10:35:30.923Z,21.4
2022-09-28T10:41:14.514Z,21.85
2022-09-28T10:47:01.926Z,21.82
2022-09-28T10:52:45.041Z,21.67
2022-09-28T10:58:30.028Z,21.47
2022-09-28T11:04:18.287Z,21.36
2022-09-28T11:10:03.147Z,21.44
2022-09-28T11:15:46.384Z,21.75
2022-09-28T11:21:30.177Z,21.69
2022-09-28T11:27:18.952Z,21.73
2022-09-28T11:33:07.252Z,21.8
2022-09-28T11:38:55.375Z,21.96
2022-09-28T11:44:42.308Z,22.15
2022-09-28T11:50:30.734Z,22.5
2022-09-28T11:56:16.684Z,23.06
2022-09-28T12:02:03.166Z,23.41
2022-09-28T12:07:49.780Z,23.76
2022-09-28T12:13:34.831Z,23.19
2022-09-28T12:19:20.463Z,23.07
2022-09-28T12:25:06.532Z,23.09
2022-09-28T12:30:50.373Z,23.61
2022-09-28T12:36:40.959Z,23.94
2022-09-28T12:42:30.358Z,24.09
2022-09-28T12:48:27.849Z,24.26
2022-09-28T12:54:16.991Z,24.37
2022-09-28T13:00:04.357Z,24.47
2022-09-28T13:06:10.510Z,24.57
2022-09-28T13:12:05.047Z,24.71
2022-09-28T13:17:55.116Z,24.34
2022-09-28T13:23:40.510Z,24.4
2022-09-28T13:29:24.494Z,24.62
2022-09-28T13:35:12.538Z,24.83
2022-09-28T13:41:07.557Z,24.96
2022-09-28T13:46:56.631Z,25.13
2022-09-28T13:52:45.063Z,25.24
2022-09-28T13:58:30.410Z,25.35
2022-09-28T14:04:15.844Z,25.63
2022-09-28T14:10:16.739Z,25.33
2022-09-28T14:16:09.192Z,25.18
2022-09-28T14:22:09.662Z,25.33
2022-09-28T14:28:08.507Z,25.23
2022-09-28T14:33:58.309Z,25.21
2022-09-28T14:39:43.711Z,25
2022-09-28T14:45:38.309Z,24.74
2022-09-28T14:51:33.406Z,24.43
2022-09-28T14:57:20.235Z,24.23
2022-09-28T15:03:07.834Z,23.98
2022-09-28T15:08:54.684Z,23.82
2022-09-28T15:14:42.876Z,23.93
2022-09-28T15:20:27.520Z,23.74
2022-09-28T15:26:20.531Z,23.97
2022-09-28T15:32:03.775Z,23.94
2022-09-28T15:37:47.963Z,24.02
2022-09-28T15:43:32.541Z,23.99
2022-09-28T15:49:24.347Z,24.06
2022-09-28T15:55:16.576Z,23.92
2022-09-28T16:01:10.597Z,23.62
2022-09-28T16:07:07.701Z,23.54
2022-09-28T16:12:51.694Z,23.61
2022-09-28T16:18:38.794Z,23.8
2022-09-28T16:24:24.353Z,23.88
2022-09-28T16:30:18.290Z,24.11
2022-09-28T16:36:02.114Z,24.16
2022-09-28T16:41:48.266Z,23.88
2022-09-28T16:47:31.920Z,23.6
2022-09-28T16:53:15.995Z,23.39
2022-09-28T16:58:59.179Z,23.29
2022-09-28T17:04:45.754Z,23.14
2022-09-28T17:10:41.176Z,22.86
2022-09-28T17:17:02.567Z,22.68
2022-09-28T17:22:41.177Z,22.51
2022-09-28T17:28:26.079Z,22.29
2022-09-28T17:34:11.664Z,22.1
2022-09-28T17:39:55.091Z,21.94
2022-09-28T17:45:38.925Z,21.77
2022-09-28T17:51:22.173Z,21.61
2022-09-28T17:57:05.543Z,21.45
2022-09-28T18:02:50.747Z,21.31
2022-09-28T18:08:34.185Z,21.17
2022-09-28T18:14:17.441Z,20.99
2022-09-28T18:20:00.887Z,20.85
2022-09-28T18:25:44.798Z,20.69
2022-09-28T18:31:27.959Z,20.55
2022-09-28T18:37:11.549Z,20.47
2022-09-28T18:42:54.943Z,20.34
2022-09-28T18:48:38.515Z,20.21
2022-09-28T18:54:21.742Z,20.09
2022-09-28T19:00:08.044Z,19.97
2022-09-28T19:05:51.947Z,19.89
2022-09-28T19:11:36.327Z,19.77
2022-09-28T19:17:19.754Z,19.65
2022-09-28T19:23:02.925Z,19.55
2022-09-28T19:28:46.452Z,19.46
2022-09-28T19:34:29.739Z,19.43
2022-09-28T19:40:13.368Z,19.3
2022-09-28T19:46:02.161Z,19.21
2022-09-28T19:52:08.422Z,19.11
2022-09-28T19:57:49.283Z,19.05
2022-09-28T20:03:32.439Z,18.94
2022-09-28T20:09:15.738Z,18.81
2022-09-28T20:14:59.363Z,18.7
2022-09-28T20:20:42.817Z,18.58
2022-09-28T20:26:26.675Z,18.48
2022-09-28T20:32:09.859Z,18.39
2022-09-28T20:37:54.331Z,18.33
2022-09-28T20:43:37.489Z,18.24
2022-09-28T20:49:20.583Z,18.16
2022-09-28T20:55:03.952Z,18.09
2022-09-28T21:00:48.133Z,18.02
2022-09-28T21:06:32.967Z,17.96
2022-09-28T21:12:16.089Z,17.9
2022-09-28T21:17:59.242Z,17.83
2022-09-28T21:23:42.491Z,17.77
2022-09-28T21:29:25.694Z,17.71
2022-09-28T21:35:09.217Z,17.67
2022-09-28T21:40:58.193Z,17.6
2022-09-28T21:46:41.807Z,17.53
2022-09-28T21:52:25.404Z,17.52
2022-09-28T21:58:08.569Z,17.43
2022-09-28T22:03:52.375Z,17.4
2022-09-28T22:09:35.405Z,17.31
2022-09-28T22:15:18.543Z,17.27
2022-09-28T22:21:02.527Z,17.18
2022-09-28T22:26:45.863Z,17.1
2022-09-28T22:32:29.266Z,17.07
2022-09-28T22:38:12.486Z,17.11
2022-09-28T22:43:55.714Z,16.98
2022-09-28T22:49:38.994Z,16.88
2022-09-28T22:55:22.285Z,16.81
2022-09-28T23:01:09.863Z,16.73
2022-09-28T23:06:53.202Z,16.7
2022-09-28T23:12:36.407Z,16.66
2022-09-28T23:18:19.831Z,16.63
2022-09-28T23:24:03.126Z,16.58
2022-09-28T23:29:46.263Z,16.53
2022-09-28T23:35:29.566Z,16.48
2022-09-28T23:41:12.843Z,16.48
2022-09-28T23:46:56.152Z,16.44
2022-09-28T23:52:39.635Z,16.41
2022-09-28T23:58:22.809Z,16.37
